Portada
METAR-TAF:

METAR-TAF

Aeroports :

Ayacucho, Perú

latitud: 13-08S, longitud: 074-13W, altitud: 2740 m

Observació

L'informe es va fer fa 1 hora i 0 minuts, a les 12:00 UTC
Vent 2 kt del Sud/Sud-Est
Temperatura 11°C
Humitat 58%
Pressió 1029 hPa
Visibilitat 10 km o més
Escasses núvols a una alçada de 4000 ft
Núvols disperses a una alçada de 23000 ft

METAR: SPHO 291200Z 16002KT 9999 FEW040 SCT230 11/03 Q1029 RMK TN9.8/ BIRD HAZARD RWY 20/02 PP000

Hora: 08:00 (13:00 UTC)

Pronòstic

L'informe es va fer fa 2 hores i 0 minuts, a les 11:00 UTC
Pronòstic vàlid del 29 a les 12 UTC al 30 a les 12 UTC
Vent 5 kt del Sud-Est
Visibilitat 10 km o més
Escasses núvols a una alçada de 4000 ft
Núvols disperses a una alçada de 10000 ft
Temporalment
l' 29 a les 19 UTC al 29 a les 23 UTC
Escasses núvols a una alçada de 4000 ft, Cumulus congestus.

TAF: SPHO 291100Z 2912/3012 14005KT 9999 FEW040 SCT100 TX23/2919Z TN12/3011Z TEMPO 2919/2923 FEW040TCU

Observacions i pronòstics meteorològics de més de 4000 aeroports (METAR i TAF).

Les estacions disponibles són els punts grocs i vermells al mapa.

Posi el ratolí al punt desitjat per veure el nom de l'estació.

Feu clic per veure les observacions i els pronòstics meteorològics.

Per canviar el mapa: feu clic els botons verds amb una creu de color negre per apropar; al botó verd amb un guió per allunyar la imatge; o en les fletxes verdes per a mapes adjacents.


METAR-TAF: